Impacts TAF Board INFO
FOR SITUATIONAL AWARENESS. NOT TO BE USED FOR FLIGHT PLANNING PURPOSES.
IDs:

KJFK - New York/Kennedy Int, NY, US

Issued at 2340 UTC 12 Dec 2017
Updated at 0134 UTC 13 Dec 2017
Potential Impact None Slight Moderate High
Time<<13/14Z 13/15Z 13/16Z 13/17Z 13/18Z 13/19Z 13/20Z 13/21Z 13/22Z 13/23Z 14/00Z 14/01Z 14/02Z>>
Type PRVL PRVL PRVL PRVL PRVL PRVL PRVL PRVL PRVL PRVL PRVL PRVL PRVL
VIS >6 >6 >6 >6 >6 >6 >6 >6 >6 >6 >6 >6 >6
CIG 50 50 50 50 50 50 50 200 200 200 200 50 50
Cover BKN BKN BKN BKN BKN BKN BKN BKN BKN BKN BKN BKN BKN
FltCat VFR VFR VFR VFR VFR VFR VFR VFR VFR VFR VFR VFR VFR
WX -- -- -- -- -- -- -- -- -- -- -- -- --
WDir 280 280 280 280 280 280 280 270 270 270 270 260 260
WSpd 25 25 25 25 25 25 25 21 21 21 21 17 17
WGst 35 35 35 35 35 35 35 30 30 30 30 25 25

Raw TAF
KJFK 122340Z 1300/1406 28018G26KT P6SM VCSH SCT025 BKN050 BKN100
  FM130300 30020G31KT P6SM VCSH FEW030 BKN050
  FM130700 28022G34KT P6SM SCT050 BKN100
  FM131300 28025G35KT P6SM BKN050
  FM132100 27021G30KT P6SM SCT050 BKN200
  FM140100 26017G25KT P6SM BKN050 BKN100


METAR Board
Radar Display
Forecast Discussion

FOR SITUATIONAL AWARENESS. NOT TO BE USED FOR FLIGHT PLANNING PURPOSES.